createdAt,value
2019-04-23T00:01:49.260Z,59.28
2019-04-23T00:04:19.655Z,59.41
2019-04-23T00:06:48.856Z,59.49
2019-04-23T00:09:22.345Z,59.55
2019-04-23T00:11:39.811Z,59.78
2019-04-23T00:14:13.405Z,59.81
2019-04-23T00:16:51.159Z,59.70
2019-04-23T00:19:01.077Z,60.02
2019-04-23T00:24:12.017Z,59.92
2019-04-23T00:29:06.666Z,60.11
2019-04-23T00:31:34.998Z,60.02
2019-04-23T00:33:56.779Z,60.17
2019-04-23T00:36:27.777Z,60.02
2019-04-23T00:39:06.313Z,60.04
2019-04-23T00:41:15.970Z,60.03
2019-04-23T00:43:52.730Z,60.12
2019-04-23T00:46:18.466Z,60.27
2019-04-23T00:48:52.251Z,60.31
2019-04-23T00:51:02.959Z,60.36
2019-04-23T00:53:32.662Z,60.69
2019-04-23T00:56:19.424Z,60.85
2019-04-23T00:58:38.027Z,61.10
2019-04-23T01:01:00.382Z,61.29
2019-04-23T01:03:42.213Z,61.33
2019-04-23T01:05:52.296Z,61.41
2019-04-23T01:08:28.505Z,61.47
2019-04-23T01:10:56.473Z,61.60
2019-04-23T01:14:24.559Z,61.63
2019-04-23T01:15:57.719Z,61.63
2019-04-23T01:18:32.602Z,61.79
2019-04-23T01:20:53.743Z,62.16
2019-04-23T01:23:11.577Z,62.08
2019-04-23T01:25:52.196Z,62.36
2019-04-23T01:28:35.623Z,62.23
2019-04-23T01:36:09.694Z,62.92
2019-04-23T01:38:30.963Z,62.92
2019-04-23T01:41:09.544Z,62.99
2019-04-23T01:43:23.445Z,63.34
2019-04-23T01:45:40.932Z,63.33
2019-04-23T01:48:12.878Z,63.74
2019-04-23T01:50:48.725Z,64.05
2019-04-23T01:53:14.989Z,64.46
2019-04-23T01:55:44.954Z,63.80
2019-04-23T02:05:39.718Z,63.78
2019-04-23T02:08:06.471Z,64.10
2019-04-23T02:10:53.730Z,64.14
2019-04-23T02:20:39.833Z,63.95
2019-04-23T02:23:21.417Z,63.99
2019-04-23T02:25:53.812Z,64.31
2019-04-23T02:28:25.757Z,64.07
2019-04-23T02:31:03.808Z,64.07
2019-04-23T02:35:42.678Z,64.76
2019-04-23T02:40:46.767Z,64.99
2019-04-23T02:43:15.264Z,65.31
2019-04-23T02:45:39.230Z,65.32
2019-04-23T02:52:57.568Z,65.64
2019-04-23T02:55:31.448Z,66.02
2019-04-23T02:57:56.260Z,65.88
2019-04-23T03:00:27.763Z,66.78
2019-04-23T03:02:56.869Z,66.78
2019-04-23T03:10:11.803Z,66.41
2019-04-23T03:12:42.758Z,66.89
2019-04-23T03:15:44.686Z,67.06
2019-04-23T03:18:04.732Z,67.15
2019-04-23T03:23:03.609Z,66.87
2019-04-23T03:25:49.602Z,67.23
2019-04-23T03:27:58.900Z,67.44
2019-04-23T03:36:02.131Z,67.16
2019-04-23T03:37:58.583Z,66.87
2019-04-23T03:43:04.378Z,66.62
2019-04-23T03:47:44.760Z,67.16
2019-04-23T03:50:23.677Z,66.91
2019-04-23T03:55:28.091Z,67.07
2019-04-23T04:00:22.438Z,67.20
2019-04-23T04:02:40.418Z,67.21
2019-04-23T04:04:53.648Z,67.21
2019-04-23T04:07:35.815Z,67.00
2019-04-23T04:12:29.406Z,66.42
2019-04-23T04:15:03.814Z,66.11
2019-04-23T04:17:16.043Z,66.25
2019-04-23T04:22:18.258Z,65.90
2019-04-23T04:24:40.235Z,65.90
2019-04-23T04:32:00.781Z,65.74
2019-04-23T04:34:55.576Z,65.29
2019-04-23T04:37:27.258Z,65.29
2019-04-23T04:39:26.590Z,65.25
2019-04-23T04:52:01.089Z,65.00
2019-04-23T04:56:42.694Z,64.89
2019-04-23T05:04:02.433Z,64.70
2019-04-23T05:06:37.494Z,64.56
2019-04-23T05:09:02.160Z,64.37
2019-04-23T05:11:44.271Z,64.11
2019-04-23T05:13:54.909Z,64.24
2019-04-23T05:16:21.623Z,64.11
2019-04-23T05:26:19.298Z,63.65
2019-04-23T05:28:48.912Z,63.33
2019-04-23T05:31:08.597Z,63.00
2019-04-23T05:33:57.224Z,62.86
2019-04-23T05:38:51.086Z,62.72
2019-04-23T05:41:07.600Z,62.17
2019-04-23T05:43:28.002Z,61.67
2019-04-23T05:45:56.633Z,61.34
2019-04-23T05:53:21.116Z,60.16
2019-04-23T05:55:47.614Z,59.99
2019-04-23T05:58:16.647Z,59.83
2019-04-23T06:00:48.095Z,59.73
2019-04-23T06:03:14.830Z,59.41
2019-04-23T06:05:44.853Z,58.91
2019-04-23T06:08:25.553Z,58.41
2019-04-23T06:10:36.297Z,58.37
2019-04-23T06:12:59.662Z,58.11
2019-04-23T06:15:32.206Z,58.36
2019-04-23T06:18:02.254Z,58.68
2019-04-23T06:20:28.752Z,57.58
2019-04-23T06:23:01.057Z,56.98
2019-04-23T06:25:47.811Z,57.14
2019-04-23T06:30:19.243Z,56.21
2019-04-23T06:32:42.837Z,56.70
2019-04-23T06:35:11.830Z,55.84
2019-04-23T06:38:04.789Z,55.84
2019-04-23T06:40:08.699Z,55.97
2019-04-23T06:42:34.675Z,55.55
2019-04-23T06:44:59.965Z,55.55
2019-04-23T06:47:28.932Z,55.30
2019-04-23T06:52:21.808Z,54.77
2019-04-23T06:55:01.441Z,54.32
2019-04-23T06:57:22.444Z,54.13
2019-04-23T06:59:52.631Z,53.94
2019-04-23T07:02:18.489Z,53.74
2019-04-23T07:05:06.564Z,52.79
2019-04-23T07:07:41.029Z,53.20
2019-04-23T07:09:38.944Z,53.06
2019-04-23T07:12:08.677Z,52.18
2019-04-23T07:14:44.061Z,51.60
2019-04-23T07:17:03.858Z,50.99
2019-04-23T07:19:39.130Z,50.36
2019-04-23T07:22:08.259Z,50.27
2019-04-23T07:24:32.862Z,48.91
2019-04-23T07:26:45.296Z,49.39
2019-04-23T07:29:27.631Z,48.73
2019-04-23T07:31:54.545Z,47.97
2019-04-23T07:34:20.361Z,47.45
2019-04-23T07:36:47.982Z,47.14
2019-04-23T07:44:29.788Z,45.74
2019-04-23T07:47:11.679Z,45.03
2019-04-23T07:49:30.819Z,44.03
2019-04-23T07:52:04.802Z,44.41
2019-04-23T07:57:02.584Z,43.48
2019-04-23T07:59:27.309Z,44.08
2019-04-23T08:01:49.599Z,43.91
2019-04-23T08:04:18.275Z,43.69
2019-04-23T08:06:47.694Z,42.75
2019-04-23T08:09:10.931Z,42.34
2019-04-23T08:11:42.682Z,42.81
2019-04-23T08:14:02.080Z,43.17
2019-04-23T08:16:33.935Z,42.58
2019-04-23T08:19:14.211Z,41.73
2019-04-23T08:24:17.011Z,42.40
2019-04-23T08:26:50.293Z,42.09
2019-04-23T08:29:20.207Z,41.21
2019-04-23T08:31:51.998Z,40.77
2019-04-23T08:34:25.558Z,41.43
2019-04-23T08:36:51.860Z,40.69
2019-04-23T08:39:12.070Z,40.84
2019-04-23T08:41:46.125Z,41.07
2019-04-23T08:44:25.436Z,39.94
2019-04-23T08:47:03.263Z,39.48
2019-04-23T08:49:36.440Z,39.58
2019-04-23T08:52:02.470Z,39.87
2019-04-23T08:54:42.887Z,39.57
2019-04-23T08:57:04.073Z,38.93
2019-04-23T08:59:37.245Z,39.25
2019-04-23T09:02:07.181Z,38.66
2019-04-23T09:04:23.673Z,38.24
2019-04-23T09:07:00.239Z,37.81
2019-04-23T09:09:24.938Z,38.30
2019-04-23T09:14:09.004Z,38.23
2019-04-23T09:16:44.679Z,38.16
2019-04-23T09:21:37.384Z,38.76
2019-04-23T09:24:05.794Z,38.23
2019-04-23T09:26:26.203Z,37.89
2019-04-23T09:29:01.138Z,38.23
2019-04-23T09:31:55.387Z,37.77
2019-04-23T09:34:09.766Z,37.76
2019-04-23T09:37:00.143Z,37.21
2019-04-23T09:39:27.740Z,37.49
2019-04-23T09:42:03.328Z,37.37
2019-04-23T09:47:30.057Z,37.06
2019-04-23T09:49:58.946Z,36.30
2019-04-23T09:52:20.342Z,36.49
2019-04-23T09:54:49.777Z,36.80
2019-04-23T09:57:13.420Z,36.00
2019-04-23T09:59:43.059Z,36.53
2019-04-23T10:02:01.040Z,36.15
2019-04-23T10:04:23.201Z,36.00
2019-04-23T10:06:39.249Z,36.07
2019-04-23T10:09:10.144Z,36.18
2019-04-23T10:11:34.649Z,36.80
2019-04-23T10:14:00.828Z,36.58
2019-04-23T10:16:30.278Z,35.98
2019-04-23T10:18:55.150Z,35.96
2019-04-23T10:21:21.475Z,36.32
2019-04-23T10:23:47.604Z,35.17
2019-04-23T10:26:14.249Z,35.44
2019-04-23T10:28:42.255Z,35.31
2019-04-23T10:31:09.059Z,34.79
2019-04-23T10:33:34.896Z,34.52
2019-04-23T10:36:04.816Z,34.90
2019-04-23T10:38:30.194Z,34.80
2019-04-23T10:40:56.281Z,34.64
2019-04-23T10:43:22.688Z,33.94
2019-04-23T10:46:07.830Z,34.43
2019-04-23T10:51:25.147Z,33.32
2019-04-23T10:53:42.770Z,33.16
2019-04-23T10:56:21.432Z,33.08
2019-04-23T10:58:38.551Z,32.97
2019-04-23T11:01:18.692Z,33.13
2019-04-23T11:03:48.685Z,33.39
2019-04-23T11:06:17.614Z,32.20
2019-04-23T11:08:38.335Z,33.06
2019-04-23T11:11:09.302Z,32.98
2019-04-23T11:13:38.349Z,32.38
2019-04-23T11:18:48.813Z,32.11
2019-04-23T11:21:05.349Z,33.05
2019-04-23T11:23:29.479Z,32.83
2019-04-23T11:25:55.897Z,33.00
2019-04-23T11:28:27.521Z,32.37
2019-04-23T11:31:03.475Z,32.00
2019-04-23T11:36:22.164Z,32.35
2019-04-23T11:38:50.781Z,31.93
2019-04-23T11:40:43.606Z,31.78
2019-04-23T11:43:20.465Z,32.33
2019-04-23T11:48:33.006Z,32.41
2019-04-23T11:51:24.124Z,32.42
2019-04-23T11:53:18.446Z,32.19
2019-04-23T11:55:47.645Z,32.60
2019-04-23T12:00:46.383Z,32.61
2019-04-23T12:02:57.948Z,31.42
2019-04-23T12:05:58.254Z,32.48
2019-04-23T12:08:25.127Z,32.64
2019-04-23T12:13:21.451Z,32.95
2019-04-23T12:18:10.056Z,31.92
2019-04-23T12:20:37.932Z,32.02
2019-04-23T12:23:19.368Z,32.18
2019-04-23T12:25:36.167Z,32.32
2019-04-23T12:27:59.699Z,32.66
2019-04-23T12:30:36.219Z,32.92
2019-04-23T12:33:06.658Z,32.47
2019-04-23T12:35:22.446Z,32.52
2019-04-23T12:40:52.182Z,32.68
2019-04-23T12:45:43.879Z,33.11
2019-04-23T12:48:09.761Z,33.08
2019-04-23T12:55:31.934Z,31.61
2019-04-23T13:05:19.116Z,32.85
2019-04-23T13:07:43.747Z,32.43
2019-04-23T13:10:14.893Z,33.14
2019-04-23T13:15:11.416Z,33.24
2019-04-23T13:25:09.518Z,33.80
2019-04-23T13:27:57.143Z,33.40
2019-04-23T13:30:27.927Z,33.10
2019-04-23T13:32:50.202Z,33.16
2019-04-23T13:35:28.048Z,32.96
2019-04-23T13:37:47.341Z,33.48
2019-04-23T13:40:09.534Z,32.79
2019-04-23T13:42:52.403Z,33.56
2019-04-23T13:45:04.956Z,34.07
2019-04-23T13:47:47.229Z,34.11
2019-04-23T13:50:07.864Z,34.38
2019-04-23T13:55:04.483Z,34.35
2019-04-23T13:59:53.452Z,34.27
2019-04-23T14:02:30.004Z,34.30
2019-04-23T14:04:59.720Z,35.02
2019-04-23T14:07:30.389Z,33.83
2019-04-23T14:12:22.233Z,34.23
2019-04-23T14:19:45.270Z,35.60
2019-04-23T14:22:31.529Z,35.76
2019-04-23T14:24:53.149Z,35.82
2019-04-23T14:27:18.131Z,35.61
2019-04-23T14:32:08.494Z,35.94
2019-04-23T14:34:35.281Z,36.61
2019-04-23T14:39:32.138Z,36.49
2019-04-23T14:42:01.149Z,35.66
2019-04-23T14:44:18.996Z,36.29
2019-04-23T14:47:03.461Z,36.19
2019-04-23T14:49:30.934Z,36.47
2019-04-23T14:52:02.463Z,36.92
2019-04-23T14:54:34.681Z,37.22
2019-04-23T14:56:58.824Z,37.08
2019-04-23T14:59:29.149Z,37.30
2019-04-23T15:01:48.970Z,36.18
2019-04-23T15:04:10.940Z,36.05
2019-04-23T15:06:51.612Z,36.19
2019-04-23T15:11:44.115Z,36.91
2019-04-23T15:14:10.098Z,37.02
2019-04-23T15:16:39.677Z,36.70
2019-04-23T15:23:10.706Z,36.71
2019-04-23T15:28:57.337Z,36.62
2019-04-23T15:39:19.161Z,38.08
2019-04-23T15:41:40.487Z,37.51
2019-04-23T15:44:05.005Z,37.62
2019-04-23T15:46:32.694Z,37.78
2019-04-23T15:53:48.557Z,38.64
2019-04-23T15:56:26.848Z,38.14
2019-04-23T15:58:56.180Z,39.09
2019-04-23T16:01:21.251Z,38.74
2019-04-23T16:03:17.534Z,38.29
2019-04-23T16:05:44.627Z,38.67
2019-04-23T16:08:48.096Z,38.41
2019-04-23T16:11:15.626Z,38.25
2019-04-23T16:13:53.380Z,38.30
2019-04-23T16:16:07.697Z,38.90
2019-04-23T16:18:37.364Z,38.81
2019-04-23T16:21:14.627Z,38.56
2019-04-23T16:23:28.076Z,38.72
2019-04-23T16:26:01.863Z,38.95
2019-04-23T16:28:35.563Z,39.35
2019-04-23T16:31:00.872Z,39.98
2019-04-23T16:33:16.280Z,39.65
2019-04-23T16:40:47.756Z,40.76
2019-04-23T16:43:23.120Z,40.91
2019-04-23T16:45:52.672Z,41.34
2019-04-23T16:48:33.234Z,41.33
2019-04-23T16:51:06.186Z,41.46
2019-04-23T16:53:21.489Z,41.58
2019-04-23T17:03:13.021Z,42.30
2019-04-23T17:05:46.558Z,42.31
2019-04-23T17:08:32.579Z,42.74
2019-04-23T17:10:36.618Z,42.61
2019-04-23T17:13:04.729Z,43.05
2019-04-23T17:15:40.795Z,42.85
2019-04-23T17:18:03.540Z,43.03
2019-04-23T17:20:30.946Z,42.68
2019-04-23T17:22:56.347Z,42.67
2019-04-23T17:25:20.435Z,42.92
2019-04-23T17:27:58.962Z,43.05
2019-04-23T17:30:19.918Z,43.32
2019-04-23T17:32:57.240Z,43.06
2019-04-23T17:35:29.757Z,43.42
2019-04-23T17:38:07.683Z,43.60
2019-04-23T17:40:30.645Z,43.85
2019-04-23T17:43:04.668Z,43.97
2019-04-23T17:45:32.383Z,44.24
2019-04-23T17:48:08.754Z,44.40
2019-04-23T17:50:31.918Z,44.68
2019-04-23T17:55:29.756Z,45.05
2019-04-23T17:58:01.136Z,45.26
2019-04-23T18:00:34.076Z,45.36
2019-04-23T18:03:01.199Z,45.53
2019-04-23T18:05:36.735Z,45.33
2019-04-23T18:07:55.987Z,45.72
2019-04-23T18:15:10.644Z,45.89
2019-04-23T18:17:41.303Z,46.07
2019-04-23T18:20:16.335Z,46.24
2019-04-23T18:22:48.777Z,46.60
2019-04-23T18:25:17.075Z,46.64
2019-04-23T18:27:47.096Z,46.73
2019-04-23T18:30:23.143Z,46.90
2019-04-23T18:35:53.396Z,46.99
2019-04-23T18:38:04.891Z,46.69
2019-04-23T18:40:38.768Z,46.63
2019-04-23T18:43:15.258Z,46.55
2019-04-23T18:45:41.466Z,46.31
2019-04-23T18:48:34.373Z,46.01
2019-04-23T18:53:22.737Z,45.89
2019-04-23T18:55:54.429Z,45.75
2019-04-23T18:58:12.173Z,45.79
2019-04-23T19:01:01.954Z,45.92
2019-04-23T19:03:23.144Z,45.83
2019-04-23T19:05:58.681Z,45.86
2019-04-23T19:08:39.189Z,45.86
2019-04-23T19:11:09.041Z,45.85
2019-04-23T19:13:42.133Z,45.93
2019-04-23T19:15:53.606Z,46.09
2019-04-23T19:25:51.454Z,46.98
2019-04-23T19:28:34.639Z,47.12
2019-04-23T19:31:07.413Z,47.28
2019-04-23T19:33:50.352Z,47.90
2019-04-23T19:38:31.549Z,48.04
2019-04-23T19:46:00.659Z,48.54
2019-04-23T19:48:27.016Z,49.00
2019-04-23T19:53:27.786Z,50.00
2019-04-23T19:56:00.526Z,50.55
2019-04-23T19:58:13.843Z,50.98
2019-04-23T20:01:01.913Z,51.51
2019-04-23T20:05:41.082Z,51.96
2019-04-23T20:10:35.150Z,52.61
2019-04-23T20:12:59.124Z,53.47
2019-04-23T20:15:42.748Z,53.61
2019-04-23T20:17:54.208Z,54.51
2019-04-23T20:20:25.169Z,54.95
2019-04-23T20:25:56.612Z,56.48
2019-04-23T20:27:58.350Z,56.62
2019-04-23T20:33:53.054Z,56.96
2019-04-23T20:35:43.687Z,57.39
2019-04-23T20:38:25.570Z,57.64
2019-04-23T20:40:49.079Z,57.53
2019-04-23T20:42:58.752Z,57.83
2019-04-23T20:45:41.033Z,58.13
2019-04-23T20:50:34.537Z,57.68
2019-04-23T20:52:56.370Z,57.79
2019-04-23T20:55:44.255Z,58.25
2019-04-23T20:58:14.257Z,58.11
2019-04-23T21:00:33.975Z,58.23
2019-04-23T21:03:28.934Z,58.54
2019-04-23T21:05:22.771Z,58.86
2019-04-23T21:10:35.778Z,60.12
2019-04-23T21:13:06.842Z,60.46
2019-04-23T21:15:30.986Z,60.97
2019-04-23T21:17:59.577Z,60.89
2019-04-23T21:20:27.724Z,61.12
2019-04-23T21:25:22.823Z,62.18
2019-04-23T21:27:55.320Z,62.10
2019-04-23T21:30:53.573Z,62.30
2019-04-23T21:33:05.409Z,62.44
2019-04-23T21:36:03.199Z,62.58
2019-04-23T21:38:46.422Z,63.17
2019-04-23T21:41:05.521Z,63.42
2019-04-23T21:44:00.550Z,64.12
2019-04-23T21:46:15.244Z,64.65
2019-04-23T21:48:44.054Z,64.78
2019-04-23T21:51:09.844Z,64.88
2019-04-23T21:53:36.250Z,65.45
2019-04-23T21:58:25.913Z,66.63
2019-04-23T22:00:59.350Z,66.23
2019-04-23T22:03:35.667Z,66.79
2019-04-23T22:06:01.742Z,66.54
2019-04-23T22:08:27.157Z,67.34
2019-04-23T22:11:00.414Z,68.19
2019-04-23T22:15:54.699Z,68.90
2019-04-23T22:18:06.801Z,68.62
2019-04-23T22:20:44.198Z,68.85
2019-04-23T22:25:42.014Z,70.05
2019-04-23T22:28:05.416Z,70.54
2019-04-23T22:30:31.452Z,71.20
2019-04-23T22:33:09.468Z,71.06
2019-04-23T22:35:37.972Z,71.72
2019-04-23T22:38:02.391Z,72.22
2019-04-23T22:40:10.417Z,72.24
2019-04-23T22:43:01.274Z,72.45
2019-04-23T22:45:27.173Z,72.26
2019-04-23T22:47:39.401Z,72.86
2019-04-23T22:50:06.178Z,72.48
2019-04-23T22:52:40.676Z,72.81
2019-04-23T22:55:14.006Z,73.11
2019-04-23T22:57:56.014Z,72.83
2019-04-23T23:02:54.567Z,73.79
2019-04-23T23:07:47.175Z,74.17
2019-04-23T23:10:12.902Z,73.98
2019-04-23T23:12:49.155Z,73.99
2019-04-23T23:15:10.265Z,73.89
2019-04-23T23:17:31.011Z,74.53
2019-04-23T23:20:11.746Z,74.32
2019-04-23T23:22:28.113Z,74.35
2019-04-23T23:24:55.941Z,74.37
2019-04-23T23:27:23.731Z,74.52
2019-04-23T23:30:00.019Z,74.65
2019-04-23T23:32:23.096Z,74.64
2019-04-23T23:35:05.875Z,74.39
2019-04-23T23:39:51.506Z,74.74
2019-04-23T23:42:11.199Z,74.74
2019-04-23T23:44:47.912Z,74.67
2019-04-23T23:47:10.568Z,74.67
2019-04-23T23:49:33.868Z,74.61
2019-04-23T23:51:57.338Z,74.42
2019-04-23T23:54:17.639Z,74.42
2019-04-23T23:57:09.166Z,74.42
